createdAt,value
2017-01-11T00:00:41.016Z,0
2017-01-11T00:01:49.991Z,0
2017-01-11T00:02:58.965Z,0
2017-01-11T00:04:07.946Z,0
2017-01-11T00:05:18.173Z,0
2017-01-11T00:06:27.272Z,0
2017-01-11T00:07:36.647Z,0
2017-01-11T00:08:47.490Z,0
2017-01-11T00:09:56.470Z,0
2017-01-11T00:11:05.990Z,0
2017-01-11T00:12:16.237Z,0
2017-01-11T00:13:27.343Z,0
2017-01-11T00:14:37.328Z,0
2017-01-11T00:15:48.203Z,0
2017-01-11T00:16:59.474Z,0
2017-01-11T00:18:09.057Z,0
2017-01-11T00:19:20.356Z,0
2017-01-11T00:20:30.770Z,0
2017-01-11T00:21:43.754Z,0
2017-01-11T00:22:55.179Z,0
2017-01-11T00:24:07.014Z,0
2017-01-11T00:25:17.340Z,0
2017-01-11T00:26:26.343Z,0
2017-01-11T00:27:35.340Z,0
2017-01-11T00:28:44.419Z,0
2017-01-11T00:29:53.397Z,0
2017-01-11T00:31:02.376Z,0
2017-01-11T00:32:11.358Z,0
2017-01-11T00:33:20.362Z,0
2017-01-11T00:34:29.336Z,0
2017-01-11T00:35:38.314Z,0
2017-01-11T00:36:47.295Z,0
2017-01-11T00:37:56.270Z,0
2017-01-11T00:39:05.246Z,0
2017-01-11T00:40:14.251Z,0
2017-01-11T00:41:23.248Z,0
2017-01-11T00:42:32.229Z,0
2017-01-11T00:43:41.205Z,0
2017-01-11T00:44:50.184Z,0
2017-01-11T00:45:59.165Z,0
2017-01-11T00:47:08.144Z,0
2017-01-11T00:48:17.122Z,0
2017-01-11T00:49:26.103Z,0
2017-01-11T00:50:35.084Z,0
2017-01-11T00:51:44.061Z,0
2017-01-11T00:52:53.037Z,0
2017-01-11T00:54:02.016Z,0
2017-01-11T00:55:10.993Z,0
2017-01-11T00:56:19.970Z,0
2017-01-11T00:57:28.951Z,0
2017-01-11T00:58:37.926Z,0
2017-01-11T00:59:46.912Z,0
2017-01-11T01:00:55.891Z,0
2017-01-11T01:02:04.878Z,0
2017-01-11T01:03:13.880Z,0
2017-01-11T01:04:22.862Z,0
2017-01-11T01:05:31.844Z,0
2017-01-11T01:06:40.823Z,0
2017-01-11T01:07:49.802Z,0
2017-01-11T01:08:58.788Z,0
2017-01-11T01:10:07.769Z,0
2017-01-11T01:11:16.774Z,0
2017-01-11T01:12:25.754Z,0
2017-01-11T01:13:34.737Z,0
2017-01-11T01:14:43.714Z,0
2017-01-11T01:15:52.691Z,0
2017-01-11T01:17:01.700Z,0
2017-01-11T01:18:10.679Z,0
2017-01-11T01:19:19.660Z,0
2017-01-11T01:20:28.637Z,0
2017-01-11T01:21:37.611Z,0
2017-01-11T01:22:46.590Z,0
2017-01-11T01:23:55.570Z,0
2017-01-11T01:25:04.549Z,0
2017-01-11T01:26:13.525Z,0
2017-01-11T01:27:22.507Z,0
2017-01-11T01:28:31.483Z,0
2017-01-11T01:29:40.467Z,0
2017-01-11T01:30:49.445Z,0
2017-01-11T01:31:58.417Z,0
2017-01-11T01:33:07.396Z,0
2017-01-11T01:34:16.376Z,0
2017-01-11T01:35:25.354Z,0
2017-01-11T01:36:34.335Z,0
2017-01-11T01:37:43.314Z,0
2017-01-11T01:38:52.293Z,0
2017-01-11T01:40:01.267Z,0
2017-01-11T01:41:10.244Z,0
2017-01-11T01:42:19.228Z,0
2017-01-11T01:43:28.207Z,0
2017-01-11T01:44:37.184Z,0
2017-01-11T01:45:46.162Z,0
2017-01-11T01:46:55.141Z,0
2017-01-11T01:48:04.118Z,0
2017-01-11T01:49:13.092Z,0
2017-01-11T01:50:22.094Z,0
2017-01-11T01:51:31.075Z,0
2017-01-11T01:52:40.046Z,0
2017-01-11T01:53:49.053Z,0
2017-01-11T01:54:58.035Z,0
2017-01-11T01:56:07.034Z,0
2017-01-11T01:57:16.014Z,0
2017-01-11T01:58:24.989Z,0
2017-01-11T01:59:33.974Z,0
2017-01-11T02:00:42.948Z,0
2017-01-11T02:01:51.925Z,0
2017-01-11T02:03:00.897Z,0
2017-01-11T02:04:09.875Z,0
2017-01-11T02:05:18.850Z,0
2017-01-11T02:06:27.825Z,0
2017-01-11T02:07:36.803Z,0
2017-01-11T02:08:45.811Z,0
2017-01-11T02:09:54.784Z,0
2017-01-11T02:11:03.763Z,0
2017-01-11T02:12:12.740Z,0
2017-01-11T02:13:21.723Z,0
2017-01-11T02:14:30.701Z,0
2017-01-11T02:15:39.675Z,0
2017-01-11T02:16:48.650Z,0
2017-01-11T02:17:57.631Z,0
2017-01-11T02:19:06.634Z,0
2017-01-11T02:20:15.611Z,0
2017-01-11T02:21:24.599Z,0
2017-01-11T02:22:33.570Z,0
2017-01-11T02:23:42.549Z,0
2017-01-11T02:24:51.523Z,0
2017-01-11T02:26:00.531Z,0
2017-01-11T02:27:09.509Z,0
2017-01-11T02:28:18.487Z,0
2017-01-11T02:29:27.469Z,0
2017-01-11T02:30:36.444Z,0
2017-01-11T02:31:45.430Z,0
2017-01-11T02:32:54.410Z,0
2017-01-11T02:34:03.390Z,0
2017-01-11T02:35:12.368Z,0
2017-01-11T02:36:21.371Z,0
2017-01-11T02:37:30.347Z,0
2017-01-11T02:38:39.324Z,0
2017-01-11T02:39:48.297Z,0
2017-01-11T02:40:57.285Z,0
2017-01-11T02:42:06.267Z,0
2017-01-11T02:43:15.244Z,0
2017-01-11T02:44:24.222Z,0
2017-01-11T02:45:33.205Z,0
2017-01-11T02:46:42.185Z,0
2017-01-11T02:47:51.187Z,0
2017-01-11T02:49:00.169Z,0
2017-01-11T02:50:09.146Z,0
2017-01-11T02:51:18.125Z,0
2017-01-11T02:52:27.103Z,0
2017-01-11T02:53:36.087Z,0
2017-01-11T02:54:45.071Z,0
2017-01-11T02:55:54.041Z,0
2017-01-11T02:57:03.025Z,0
2017-01-11T02:58:11.998Z,0
2017-01-11T02:59:20.989Z,0
2017-01-11T03:00:29.969Z,0
2017-01-11T03:01:38.943Z,0
2017-01-11T03:02:47.919Z,0
2017-01-11T03:03:56.897Z,0
2017-01-11T03:05:05.875Z,0
2017-01-11T03:06:14.855Z,0
2017-01-11T03:07:23.836Z,0
2017-01-11T03:08:32.816Z,0
2017-01-11T03:09:41.792Z,0
2017-01-11T03:10:50.781Z,0
2017-01-11T03:11:59.760Z,0
2017-01-11T03:13:08.738Z,0
2017-01-11T03:14:17.718Z,0
2017-01-11T03:15:26.693Z,0
2017-01-11T03:16:35.680Z,0
2017-01-11T03:17:44.667Z,0
2017-01-11T03:18:53.643Z,0
2017-01-11T03:20:02.626Z,0
2017-01-11T03:21:11.605Z,0
2017-01-11T03:22:20.583Z,0
2017-01-11T03:23:29.588Z,0
2017-01-11T03:24:38.566Z,0
2017-01-11T03:25:47.543Z,0
2017-01-11T03:26:56.530Z,0
2017-01-11T03:28:05.539Z,0
2017-01-11T03:29:14.516Z,0
2017-01-11T03:30:23.493Z,0
2017-01-11T03:31:32.472Z,0
2017-01-11T03:32:41.446Z,0
2017-01-11T03:33:50.425Z,0
2017-01-11T03:34:59.400Z,0
2017-01-11T03:36:08.376Z,0
2017-01-11T03:37:17.358Z,0
2017-01-11T03:38:26.339Z,0
2017-01-11T03:39:35.318Z,0
2017-01-11T03:40:44.298Z,0
2017-01-11T03:41:53.301Z,0
2017-01-11T03:43:02.275Z,0
2017-01-11T03:44:11.258Z,0
2017-01-11T03:45:20.240Z,0
2017-01-11T03:46:29.221Z,0
2017-01-11T03:47:38.203Z,0
2017-01-11T03:48:47.186Z,0
2017-01-11T03:49:56.167Z,0
2017-01-11T03:51:05.142Z,0
2017-01-11T03:52:14.116Z,0
2017-01-11T03:53:23.130Z,0
2017-01-11T03:54:32.112Z,0
2017-01-11T03:55:41.085Z,0
2017-01-11T03:56:50.061Z,0
2017-01-11T03:57:59.041Z,0
2017-01-11T03:59:08.033Z,0
2017-01-11T04:00:17.011Z,0
2017-01-11T04:01:25.987Z,0
2017-01-11T04:02:34.967Z,0
2017-01-11T04:03:43.941Z,0
2017-01-11T04:04:52.921Z,0
2017-01-11T04:06:01.899Z,0
2017-01-11T04:07:10.886Z,0
2017-01-11T04:08:26.134Z,0
2017-01-11T04:09:35.114Z,0
2017-01-11T04:10:44.115Z,0
2017-01-11T04:11:53.097Z,0
2017-01-11T04:13:02.121Z,0
2017-01-11T04:14:11.104Z,0
2017-01-11T04:15:20.081Z,0
2017-01-11T04:16:29.070Z,0
2017-01-11T04:17:38.048Z,0
2017-01-11T04:18:47.028Z,0
2017-01-11T04:19:56.015Z,0
2017-01-11T04:21:04.993Z,0
2017-01-11T04:22:13.979Z,0
2017-01-11T04:23:22.968Z,0
2017-01-11T04:24:31.943Z,0
2017-01-11T04:25:40.921Z,0
2017-01-11T04:26:49.905Z,0
2017-01-11T04:27:58.913Z,0
2017-01-11T04:29:07.889Z,0
2017-01-11T04:30:16.867Z,0
2017-01-11T04:31:25.844Z,0
2017-01-11T04:32:34.834Z,0
2017-01-11T04:33:43.813Z,0
2017-01-11T04:34:52.788Z,0
2017-01-11T04:36:01.769Z,0
2017-01-11T04:37:10.750Z,0
2017-01-11T04:38:19.727Z,0
2017-01-11T04:39:28.708Z,0
2017-01-11T04:40:37.689Z,0
2017-01-11T04:41:46.667Z,0
2017-01-11T04:42:55.640Z,0
2017-01-11T04:44:04.625Z,0
2017-01-11T04:45:13.598Z,0
2017-01-11T04:46:22.583Z,0
2017-01-11T04:47:31.564Z,0
2017-01-11T04:48:40.541Z,0
2017-01-11T04:49:49.519Z,0
2017-01-11T04:50:58.487Z,0
2017-01-11T04:52:07.460Z,0
2017-01-11T04:53:16.441Z,0
2017-01-11T04:54:25.420Z,0
2017-01-11T04:55:34.401Z,0
2017-01-11T04:56:43.400Z,0
2017-01-11T04:57:52.380Z,0
2017-01-11T04:59:01.364Z,0
2017-01-11T05:00:10.341Z,0
2017-01-11T05:01:19.326Z,0
2017-01-11T05:02:28.305Z,0
2017-01-11T05:03:37.282Z,0
2017-01-11T05:04:46.255Z,0
2017-01-11T05:05:55.236Z,0
2017-01-11T05:07:04.214Z,0
2017-01-11T05:08:13.197Z,0
2017-01-11T05:09:22.169Z,0
2017-01-11T05:10:31.148Z,0
2017-01-11T05:11:40.135Z,0
2017-01-11T05:12:49.115Z,0
2017-01-11T05:13:58.091Z,0
2017-01-11T05:15:07.067Z,0
2017-01-11T05:16:16.040Z,0
2017-01-11T05:17:25.018Z,0
2017-01-11T05:18:33.997Z,0
2017-01-11T05:19:42.971Z,0
2017-01-11T05:20:51.944Z,0
2017-01-11T05:22:00.948Z,0
2017-01-11T05:23:09.920Z,0
2017-01-11T05:24:18.897Z,0
2017-01-11T05:25:27.879Z,0
2017-01-11T05:26:36.854Z,0
2017-01-11T05:27:45.833Z,0
2017-01-11T05:28:54.811Z,0
2017-01-11T05:30:03.784Z,0
2017-01-11T05:31:12.757Z,0
2017-01-11T05:32:21.738Z,0
2017-01-11T05:33:30.712Z,0
2017-01-11T05:34:39.698Z,0
2017-01-11T05:35:48.674Z,0
2017-01-11T05:36:57.653Z,0
2017-01-11T05:38:06.636Z,0
2017-01-11T05:39:15.612Z,0
2017-01-11T05:40:24.587Z,0
2017-01-11T05:41:33.564Z,0
2017-01-11T05:42:42.545Z,0
2017-01-11T05:43:51.524Z,0
2017-01-11T05:45:00.507Z,0
2017-01-11T05:46:09.896Z,0
2017-01-11T05:47:18.870Z,0
2017-01-11T05:48:27.849Z,0
2017-01-11T05:49:36.824Z,0
2017-01-11T05:50:45.800Z,0
2017-01-11T05:51:54.777Z,0
2017-01-11T05:53:03.763Z,0
2017-01-11T05:54:12.740Z,0
2017-01-11T05:55:21.722Z,0
2017-01-11T05:56:30.698Z,0
2017-01-11T05:57:39.683Z,0
2017-01-11T05:58:48.661Z,0
2017-01-11T05:59:57.638Z,0
2017-01-11T06:01:06.621Z,0
2017-01-11T06:02:15.606Z,0
2017-01-11T06:03:24.585Z,0
2017-01-11T06:04:33.564Z,0
2017-01-11T06:05:42.547Z,0
2017-01-11T06:06:51.526Z,0
2017-01-11T06:08:00.504Z,0
2017-01-11T06:09:09.484Z,0
2017-01-11T06:10:18.471Z,0
2017-01-11T06:11:27.450Z,0
2017-01-11T06:12:36.427Z,0
2017-01-11T06:13:45.403Z,0
2017-01-11T06:14:54.380Z,0
2017-01-11T06:16:03.362Z,0
2017-01-11T06:17:12.341Z,0
2017-01-11T06:18:21.318Z,0
2017-01-11T06:19:30.297Z,0
2017-01-11T06:20:39.277Z,0
2017-01-11T06:21:48.260Z,0
2017-01-11T06:22:57.254Z,0
2017-01-11T06:24:06.232Z,0
2017-01-11T06:25:15.209Z,0
2017-01-11T06:26:24.188Z,0
2017-01-11T06:27:33.162Z,0
2017-01-11T06:28:42.143Z,0
2017-01-11T06:29:51.121Z,0
2017-01-11T06:31:00.096Z,0
2017-01-11T06:32:09.074Z,0
2017-01-11T06:33:18.058Z,0
2017-01-11T06:34:27.039Z,0
2017-01-11T06:35:36.028Z,0
2017-01-11T06:36:45.007Z,0
2017-01-11T06:37:53.987Z,0
2017-01-11T06:39:03.003Z,0
2017-01-11T06:40:11.984Z,0
2017-01-11T06:41:20.967Z,0
2017-01-11T06:42:29.950Z,4
2017-01-11T06:43:38.922Z,0
2017-01-11T06:44:47.905Z,0
2017-01-11T06:45:56.878Z,4
2017-01-11T06:47:05.857Z,4
2017-01-11T06:48:14.837Z,4
2017-01-11T06:49:23.814Z,4
2017-01-11T06:50:32.790Z,4
2017-01-11T06:51:41.771Z,4
2017-01-11T06:52:50.750Z,8
2017-01-11T06:53:59.722Z,8
2017-01-11T06:55:08.702Z,8
2017-01-11T06:56:17.683Z,8
2017-01-11T06:57:26.662Z,12
2017-01-11T06:58:35.643Z,12
2017-01-11T06:59:44.618Z,12
2017-01-11T07:00:53.599Z,16
2017-01-11T07:02:02.576Z,20
2017-01-11T07:03:11.554Z,24
2017-01-11T07:04:20.531Z,24
2017-01-11T07:05:29.505Z,28
2017-01-11T07:06:38.478Z,32
2017-01-11T07:07:47.450Z,32
2017-01-11T07:08:56.426Z,36
2017-01-11T07:10:05.404Z,40
2017-01-11T07:11:14.385Z,44
2017-01-11T07:13:37.037Z,48
2017-01-11T07:14:46.015Z,56
2017-01-11T07:15:54.994Z,56
2017-01-11T07:17:03.979Z,64
2017-01-11T07:18:12.955Z,68
2017-01-11T07:19:21.935Z,76
2017-01-11T07:20:30.911Z,84
2017-01-11T07:21:39.888Z,84
2017-01-11T07:22:48.862Z,84
2017-01-11T07:23:57.843Z,92
2017-01-11T07:25:06.846Z,92
2017-01-11T07:26:15.827Z,100
2017-01-11T07:27:24.818Z,108
2017-01-11T07:28:33.826Z,116
2017-01-11T07:29:43.243Z,116
2017-01-11T07:30:52.222Z,120
2017-01-11T07:32:01.199Z,128
2017-01-11T07:33:10.179Z,144
2017-01-11T07:34:19.158Z,148
2017-01-11T07:35:28.139Z,156
2017-01-11T07:36:37.115Z,156
2017-01-11T07:37:46.090Z,164
2017-01-11T07:38:55.067Z,172
2017-01-11T07:40:04.039Z,184
2017-01-11T07:41:13.022Z,196
2017-01-11T07:42:21.998Z,220
2017-01-11T07:43:30.976Z,220
2017-01-11T07:44:39.957Z,224
2017-01-11T07:45:48.933Z,232
2017-01-11T07:46:57.913Z,248
2017-01-11T07:48:06.889Z,240
2017-01-11T07:49:15.863Z,232
2017-01-11T07:50:24.846Z,236
2017-01-11T07:51:33.831Z,284
2017-01-11T07:52:42.809Z,300
2017-01-11T07:53:51.784Z,328
2017-01-11T07:55:00.764Z,336
2017-01-11T07:56:09.962Z,360
2017-01-11T07:57:22.800Z,384
2017-01-11T07:58:38.787Z,372
2017-01-11T07:59:48.586Z,372
2017-01-11T08:00:57.568Z,380
2017-01-11T08:02:06.553Z,400
2017-01-11T08:03:15.528Z,412
2017-01-11T08:04:24.508Z,424
2017-01-11T08:05:33.490Z,424
2017-01-11T08:06:42.466Z,420
2017-01-11T08:07:51.445Z,424
2017-01-11T08:09:00.425Z,428
2017-01-11T08:10:09.427Z,440
2017-01-11T08:11:23.406Z,432
2017-01-11T08:12:32.748Z,436
2017-01-11T08:13:42.401Z,456
2017-01-11T08:14:51.723Z,464
2017-01-11T08:16:02.026Z,484
2017-01-11T08:17:12.679Z,464
2017-01-11T08:18:22.680Z,432
2017-01-11T08:19:32.544Z,436
2017-01-11T08:20:42.517Z,472
2017-01-11T08:21:52.647Z,484
2017-01-11T08:23:02.985Z,512
2017-01-11T08:24:13.261Z,524
2017-01-11T08:25:22.676Z,500
2017-01-11T08:26:32.356Z,448
2017-01-11T08:27:41.912Z,480
2017-01-11T08:28:52.203Z,452
2017-01-11T08:30:02.019Z,488
2017-01-11T08:31:12.665Z,548
2017-01-11T08:32:22.099Z,584
2017-01-11T08:33:31.370Z,608
2017-01-11T08:34:40.348Z,708
2017-01-11T08:35:49.328Z,688
2017-01-11T08:36:58.320Z,596
2017-01-11T08:38:07.300Z,584
2017-01-11T08:39:16.278Z,564
2017-01-11T08:40:25.252Z,620
2017-01-11T08:41:34.234Z,620
2017-01-11T08:42:43.216Z,612
2017-01-11T08:43:52.191Z,640
2017-01-11T08:45:01.183Z,628
2017-01-11T08:46:10.187Z,624
2017-01-11T08:47:19.160Z,624
2017-01-11T08:48:28.550Z,660
2017-01-11T08:49:37.531Z,760
2017-01-11T08:50:46.512Z,712
2017-01-11T08:51:55.746Z,748
2017-01-11T08:53:04.725Z,704
2017-01-11T08:54:13.702Z,668
2017-01-11T08:55:22.679Z,776
2017-01-11T08:56:31.657Z,712
2017-01-11T08:57:40.640Z,752
2017-01-11T08:58:49.625Z,788
2017-01-11T08:59:58.613Z,760
2017-01-11T09:01:07.588Z,788
2017-01-11T09:02:16.564Z,796
2017-01-11T09:03:25.547Z,764
2017-01-11T09:04:34.522Z,788
2017-01-11T09:05:43.502Z,836
2017-01-11T09:06:52.476Z,832
2017-01-11T09:08:01.455Z,888
2017-01-11T09:09:10.431Z,1040
2017-01-11T09:10:19.415Z,1140
2017-01-11T09:11:28.393Z,1068
2017-01-11T09:12:37.379Z,1024
2017-01-11T09:13:46.423Z,1012
2017-01-11T09:14:55.485Z,1024
2017-01-11T09:16:04.464Z,1016
2017-01-11T09:17:13.447Z,1036
2017-01-11T09:18:22.430Z,1108
2017-01-11T09:19:31.405Z,1184
2017-01-11T09:20:40.385Z,1168
2017-01-11T09:21:49.396Z,1260
2017-01-11T09:22:58.372Z,1280
2017-01-11T09:24:07.359Z,1212
2017-01-11T09:25:16.338Z,1360
2017-01-11T09:26:25.316Z,1132
2017-01-11T09:27:34.299Z,1040
2017-01-11T09:28:43.511Z,1360
2017-01-11T09:29:52.654Z,1324
2017-01-11T09:31:01.631Z,1408
2017-01-11T09:32:10.604Z,1684
2017-01-11T09:33:19.600Z,1848
2017-01-11T09:34:28.669Z,1980
2017-01-11T09:35:37.653Z,2344
2017-01-11T09:36:46.634Z,2596
2017-01-11T09:37:55.616Z,2748
2017-01-11T09:39:04.592Z,2896
2017-01-11T09:40:13.574Z,2996
2017-01-11T09:41:22.556Z,2984
2017-01-11T09:42:31.539Z,2880
2017-01-11T09:43:40.525Z,2832
2017-01-11T09:44:49.513Z,2612
2017-01-11T09:45:59.153Z,2216
2017-01-11T09:47:08.138Z,2028
2017-01-11T09:48:17.115Z,1916
2017-01-11T09:49:26.107Z,2088
2017-01-11T09:50:35.090Z,2212
2017-01-11T09:51:44.069Z,2112
2017-01-11T09:52:55.215Z,2204
2017-01-11T09:54:05.716Z,2352
2017-01-11T09:55:16.000Z,2592
2017-01-11T09:56:24.981Z,2840
2017-01-11T09:57:33.959Z,2996
2017-01-11T09:58:42.940Z,3084
2017-01-11T09:59:51.919Z,3048
2017-01-11T10:01:00.897Z,2936
2017-01-11T10:02:09.874Z,2880
2017-01-11T10:03:18.882Z,2644
2017-01-11T10:04:27.866Z,2628
2017-01-11T10:05:36.846Z,2436
2017-01-11T10:06:45.831Z,2176
2017-01-11T10:07:54.834Z,2064
2017-01-11T10:09:03.812Z,2192
2017-01-11T10:10:12.792Z,2304
2017-01-11T10:11:21.773Z,2376
2017-01-11T10:12:30.757Z,2176
2017-01-11T10:13:39.729Z,2044
2017-01-11T10:14:48.713Z,2024
2017-01-11T10:15:57.691Z,2004
2017-01-11T10:17:06.670Z,1992
2017-01-11T10:18:16.087Z,1992
2017-01-11T10:19:25.067Z,1912
2017-01-11T10:20:34.048Z,1916
2017-01-11T10:21:43.035Z,1852
2017-01-11T10:22:52.016Z,1852
2017-01-11T10:24:00.996Z,1928
2017-01-11T10:25:09.973Z,2044
2017-01-11T10:26:18.951Z,2008
2017-01-11T10:27:27.928Z,1888
2017-01-11T10:28:36.904Z,1800
2017-01-11T10:29:45.885Z,1760
2017-01-11T10:30:55.283Z,1696
2017-01-11T10:32:04.269Z,1724
2017-01-11T10:33:13.251Z,1816
2017-01-11T10:34:22.578Z,1848
2017-01-11T10:35:31.558Z,1852
2017-01-11T10:36:40.534Z,1956
2017-01-11T10:37:49.513Z,2044
2017-01-11T10:38:58.497Z,2216
2017-01-11T10:40:07.476Z,2508
2017-01-11T10:41:16.461Z,2628
2017-01-11T10:42:25.437Z,2772
2017-01-11T10:43:37.355Z,2636
2017-01-11T10:44:47.434Z,2300
2017-01-11T10:45:56.621Z,2112
2017-01-11T10:47:07.724Z,2168
2017-01-11T10:48:17.319Z,2256
2017-01-11T10:49:27.993Z,2200
2017-01-11T10:50:37.929Z,2072
2017-01-11T10:51:48.083Z,2000
2017-01-11T10:52:57.383Z,1916
2017-01-11T10:54:07.597Z,1644
2017-01-11T10:55:16.714Z,1584
2017-01-11T10:56:26.684Z,1600
2017-01-11T10:57:35.955Z,1616
2017-01-11T10:58:45.510Z,1504
2017-01-11T10:59:55.310Z,1448
2017-01-11T11:01:05.016Z,1460
2017-01-11T11:02:14.800Z,1468
2017-01-11T11:03:24.008Z,1624
2017-01-11T11:04:32.989Z,1620
2017-01-11T11:05:41.968Z,1500
2017-01-11T11:06:55.260Z,1364
2017-01-11T11:08:04.531Z,1320
2017-01-11T11:09:13.697Z,1296
2017-01-11T11:10:22.681Z,1240
2017-01-11T11:11:31.659Z,1240
2017-01-11T11:12:40.767Z,1252
2017-01-11T11:13:49.912Z,1268
2017-01-11T11:14:58.897Z,1336
2017-01-11T11:16:07.888Z,1404
2017-01-11T11:17:16.865Z,1400
2017-01-11T11:18:25.848Z,1392
2017-01-11T11:19:34.836Z,1464
2017-01-11T11:20:43.811Z,1476
2017-01-11T11:21:52.785Z,1516
2017-01-11T11:23:01.766Z,1556
2017-01-11T11:24:10.743Z,1780
2017-01-11T11:25:20.404Z,2024
2017-01-11T11:26:29.409Z,2092
2017-01-11T11:27:38.392Z,2196
2017-01-11T11:28:47.367Z,2248
2017-01-11T11:29:56.342Z,2188
2017-01-11T11:31:05.322Z,2144
2017-01-11T11:32:14.301Z,1924
2017-01-11T11:33:23.282Z,1756
2017-01-11T11:34:32.257Z,1740
2017-01-11T11:35:41.236Z,1716
2017-01-11T11:36:50.212Z,1620
2017-01-11T11:37:59.190Z,1504
2017-01-11T11:39:08.177Z,1372
2017-01-11T11:40:17.595Z,1452
2017-01-11T11:41:26.574Z,1384
2017-01-11T11:42:37.166Z,1324
2017-01-11T11:43:46.155Z,1076
2017-01-11T11:44:55.142Z,996
2017-01-11T11:46:04.129Z,1012
2017-01-11T11:47:13.106Z,1048
2017-01-11T11:48:22.083Z,1136
2017-01-11T11:49:31.066Z,1232
2017-01-11T11:50:40.083Z,1296
2017-01-11T11:51:49.062Z,1068
2017-01-11T11:52:58.035Z,972
2017-01-11T11:54:07.014Z,948
2017-01-11T11:55:15.997Z,1032
2017-01-11T11:56:24.975Z,1128
2017-01-11T11:57:33.973Z,1056
2017-01-11T11:58:42.957Z,904
2017-01-11T11:59:51.939Z,836
2017-01-11T12:01:01.346Z,840
2017-01-11T12:02:10.327Z,852
2017-01-11T12:03:19.457Z,852
2017-01-11T12:04:29.510Z,872
2017-01-11T12:05:38.490Z,924
2017-01-11T12:06:47.469Z,1016
2017-01-11T12:07:56.451Z,1056
2017-01-11T12:09:05.427Z,1132
2017-01-11T12:10:19.025Z,1140
2017-01-11T12:11:29.664Z,1068
2017-01-11T12:12:39.237Z,1084
2017-01-11T12:13:48.998Z,1140
2017-01-11T12:14:58.002Z,1068
2017-01-11T12:16:07.094Z,984
2017-01-11T12:17:16.110Z,960
2017-01-11T12:18:25.107Z,900
2017-01-11T12:19:34.116Z,928
2017-01-11T12:20:43.154Z,952
2017-01-11T12:21:52.159Z,1056
2017-01-11T12:23:01.168Z,1216
2017-01-11T12:24:10.213Z,1428
2017-01-11T12:25:19.207Z,1564
2017-01-11T12:26:28.223Z,1648
2017-01-11T12:27:37.214Z,1704
2017-01-11T12:28:46.199Z,1768
2017-01-11T12:29:55.176Z,1912
2017-01-11T12:31:04.161Z,2132
2017-01-11T12:32:13.150Z,2340
2017-01-11T12:33:22.131Z,2196
2017-01-11T12:34:31.139Z,1788
2017-01-11T12:35:40.114Z,1552
2017-01-11T12:36:49.094Z,1432
2017-01-11T12:37:58.451Z,1532
2017-01-11T12:39:08.011Z,1748
2017-01-11T12:40:16.994Z,1656
2017-01-11T12:41:26.355Z,1444
2017-01-11T12:42:35.338Z,1296
2017-01-11T12:43:44.438Z,1160
2017-01-11T12:44:53.424Z,1336
2017-01-11T12:46:02.693Z,1356
2017-01-11T12:47:12.501Z,1280
2017-01-11T12:48:22.543Z,1236
2017-01-11T12:49:31.525Z,1276
2017-01-11T12:50:40.554Z,1480
2017-01-11T12:51:49.914Z,1524
2017-01-11T12:52:59.001Z,1572
2017-01-11T12:54:07.987Z,1488
2017-01-11T12:55:18.129Z,1536
2017-01-11T12:56:27.607Z,1628
2017-01-11T12:57:36.920Z,1568
2017-01-11T12:58:45.898Z,1700
2017-01-11T12:59:55.425Z,1804
2017-01-11T13:01:04.407Z,1796
2017-01-11T13:02:13.956Z,1712
2017-01-11T13:03:22.944Z,1720
2017-01-11T13:04:32.465Z,1496
2017-01-11T13:05:41.667Z,1084
2017-01-11T13:06:50.824Z,772
2017-01-11T13:08:01.210Z,568
2017-01-11T13:09:10.467Z,456
2017-01-11T13:10:19.984Z,436
2017-01-11T13:11:29.347Z,420
2017-01-11T13:12:38.326Z,372
2017-01-11T13:13:47.305Z,300
2017-01-11T13:14:56.296Z,272
2017-01-11T13:16:05.273Z,288
2017-01-11T13:17:14.260Z,340
2017-01-11T13:18:23.244Z,416
2017-01-11T13:19:32.240Z,460
2017-01-11T13:20:41.223Z,468
2017-01-11T13:21:50.205Z,416
2017-01-11T13:22:59.184Z,364
2017-01-11T13:24:08.167Z,328
2017-01-11T13:25:17.761Z,344
2017-01-11T13:26:27.072Z,312
2017-01-11T13:27:36.073Z,356
2017-01-11T13:28:46.202Z,376
2017-01-11T13:29:55.181Z,352
2017-01-11T13:31:04.679Z,332
2017-01-11T13:32:13.666Z,308
2017-01-11T13:33:22.647Z,276
2017-01-11T13:34:31.629Z,204
2017-01-11T13:35:40.613Z,156
2017-01-11T13:36:49.590Z,132
2017-01-11T13:37:58.573Z,136
2017-01-11T13:39:07.556Z,136
2017-01-11T13:40:16.536Z,132
2017-01-11T13:41:25.527Z,128
2017-01-11T13:42:34.504Z,116
2017-01-11T13:43:43.493Z,120
2017-01-11T13:44:52.490Z,116
2017-01-11T13:46:01.692Z,108
2017-01-11T13:47:11.712Z,104
2017-01-11T13:48:20.964Z,96
2017-01-11T13:49:30.394Z,156
2017-01-11T13:50:39.817Z,144
2017-01-11T13:51:49.374Z,128
2017-01-11T13:52:59.204Z,124
2017-01-11T13:54:09.201Z,128
2017-01-11T13:55:18.489Z,128
2017-01-11T13:56:28.182Z,116
2017-01-11T13:57:37.165Z,108
2017-01-11T13:58:46.148Z,96
2017-01-11T13:59:55.119Z,140
2017-01-11T14:01:04.099Z,128
2017-01-11T14:02:13.080Z,152
2017-01-11T14:03:22.059Z,164
2017-01-11T14:04:31.037Z,148
2017-01-11T14:05:40.020Z,132
2017-01-11T14:06:48.997Z,128
2017-01-11T14:07:57.975Z,124
2017-01-11T14:09:06.963Z,104
2017-01-11T14:10:15.940Z,112
2017-01-11T14:11:24.923Z,100
2017-01-11T14:12:33.911Z,100
2017-01-11T14:13:42.895Z,104
2017-01-11T14:14:51.878Z,88
2017-01-11T14:16:00.858Z,92
2017-01-11T14:17:09.841Z,92
2017-01-11T14:18:18.821Z,88
2017-01-11T14:19:27.808Z,84
2017-01-11T14:20:36.791Z,140
2017-01-11T14:21:45.806Z,108
2017-01-11T14:22:54.786Z,92
2017-01-11T14:24:03.765Z,96
2017-01-11T14:25:12.746Z,84
2017-01-11T14:26:21.732Z,84
2017-01-11T14:27:30.719Z,72
2017-01-11T14:28:39.739Z,68
2017-01-11T14:29:48.720Z,76
2017-01-11T14:30:57.695Z,76
2017-01-11T14:32:06.672Z,80
2017-01-11T14:33:15.654Z,64
2017-01-11T14:34:24.641Z,52
2017-01-11T14:35:33.625Z,60
2017-01-11T14:36:42.604Z,60
2017-01-11T14:37:51.584Z,64
2017-01-11T14:39:00.563Z,68
2017-01-11T14:40:09.541Z,64
2017-01-11T14:41:18.521Z,64
2017-01-11T14:42:27.499Z,64
2017-01-11T14:43:36.478Z,56
2017-01-11T14:44:45.457Z,60
2017-01-11T14:45:54.430Z,40
2017-01-11T14:47:03.409Z,40
2017-01-11T14:48:12.393Z,40
2017-01-11T14:49:22.063Z,36
2017-01-11T14:50:31.937Z,40
2017-01-11T14:51:41.225Z,44
2017-01-11T14:52:50.202Z,44
2017-01-11T14:53:59.888Z,44
2017-01-11T14:55:09.228Z,44
2017-01-11T14:56:18.585Z,32
2017-01-11T14:57:27.724Z,32
2017-01-11T14:58:39.043Z,36
2017-01-11T14:59:48.027Z,28
2017-01-11T15:00:57.007Z,28
2017-01-11T15:02:06.631Z,28
2017-01-11T15:03:15.612Z,32
2017-01-11T15:04:24.590Z,32
2017-01-11T15:05:33.573Z,32
2017-01-11T15:06:42.548Z,20
2017-01-11T15:07:51.527Z,28
2017-01-11T15:09:00.513Z,24
2017-01-11T15:10:09.909Z,24
2017-01-11T15:11:18.915Z,20
2017-01-11T15:12:27.895Z,16
2017-01-11T15:13:36.882Z,16
2017-01-11T15:14:45.863Z,12
2017-01-11T15:15:54.845Z,12
2017-01-11T15:17:03.830Z,12
2017-01-11T15:18:12.819Z,12
2017-01-11T15:19:21.801Z,12
2017-01-11T15:20:30.778Z,12
2017-01-11T15:21:39.758Z,12
2017-01-11T15:22:48.737Z,8
2017-01-11T15:23:57.716Z,8
2017-01-11T15:25:06.703Z,8
2017-01-11T15:26:15.683Z,8
2017-01-11T15:27:24.661Z,4
2017-01-11T15:28:33.641Z,8
2017-01-11T15:29:42.634Z,4
2017-01-11T15:30:51.611Z,4
2017-01-11T15:32:00.603Z,4
2017-01-11T15:33:09.577Z,0
2017-01-11T15:34:18.563Z,4
2017-01-11T15:35:27.543Z,4
2017-01-11T15:36:36.522Z,4
2017-01-11T15:37:45.495Z,4
2017-01-11T15:38:54.475Z,0
2017-01-11T15:40:03.455Z,4
2017-01-11T15:41:12.436Z,4
2017-01-11T15:42:21.419Z,4
2017-01-11T15:43:30.398Z,0
2017-01-11T15:44:39.374Z,0
2017-01-11T15:45:48.353Z,0
2017-01-11T15:46:57.335Z,0
2017-01-11T15:48:06.333Z,0
2017-01-11T15:49:15.310Z,0
2017-01-11T15:50:24.287Z,0
2017-01-11T15:51:33.263Z,0
2017-01-11T15:52:42.318Z,0
2017-01-11T15:53:51.370Z,0
2017-01-11T15:55:00.349Z,0
2017-01-11T15:56:09.795Z,0
2017-01-11T15:57:18.774Z,0
2017-01-11T15:58:27.757Z,0
2017-01-11T15:59:36.805Z,0
2017-01-11T16:00:46.267Z,0
2017-01-11T16:01:55.371Z,0
2017-01-11T16:03:04.352Z,0
2017-01-11T16:04:13.328Z,0
2017-01-11T16:05:22.303Z,0
2017-01-11T16:06:31.288Z,0
2017-01-11T16:07:40.905Z,0
2017-01-11T16:08:49.884Z,0
2017-01-11T16:09:58.885Z,0
2017-01-11T16:11:08.822Z,0
2017-01-11T16:12:19.022Z,0
2017-01-11T16:13:28.053Z,0
2017-01-11T16:14:37.036Z,0
2017-01-11T16:15:46.015Z,0
2017-01-11T16:16:54.994Z,0
2017-01-11T16:18:03.971Z,0
2017-01-11T16:19:12.979Z,0
2017-01-11T16:20:21.957Z,0
2017-01-11T16:21:30.930Z,0